Malay Falls, Nova Scotia

2:13 PM AST on February 13, 2016 (GMT -0400)
Spanish Ship Bay | | Change Station
CLOSE
Current Station
Personal Weather Station
Location: Guysborough County, NOVA SCOTIA
Elevation: 50 ft
Nearby Weather Stations

Elev 50 ft 45.03 °N, 62.03 °W | Updated 5 seconds ago

Light Snow
Light Snow
20.8 °F
Feels Like 21 °F
N
2.0
Wind Variable Wind from ESE
Gusts 14.0 mph

Today is forecast to be nearly the same temperature as yesterday.

Today
High -- | Low -- °F
--% Chance of Precip.
Yesterday
High -- | Low -- °F
Precip. -- in
Pressure 29.63 in
Visibility 1.5 miles
Clouds
Windchill 21 °F
Dew Point 12 °F
Humidity 69%
Rainfall 0.00 in
Snow Depth Not available.
7:14 AM 5:34 PM
Waxing Crescent, 33% visible
METAR CYHZ 131800Z 36012KT 1 1/2SM -SN VV011 M10/M14 A2959 RMK SN8 PRESRR SLP034
Pressure 29.63 in
Visibility 1.5 miles
Clouds
Windchill 21 °F
Dew Point 12 °F
Humidity 69%
Rainfall 0.00 in
Snow Depth Not available.
7:14 AM 5:34 PM
Waxing Crescent, 33% visible
METAR CYHZ 131800Z 36012KT 1 1/2SM -SN VV011 M10/M14 A2959 RMK SN8 PRESRR SLP034

10-Day Weather Forecast

Almanac

Astronomy

Feb. 13, 2016 Rise Set
Actual Time
Civil Twilight
Nautical Twilight
Astronomical Twilight
Moon
Length of Visible Light
Length of Day
Tomorrow will be .
, % of the Moon is Illuminated

Today's Extremes

Country Highs Country Lows

Community

WunderPhotos

Upload Photos

1,892,632 photos uploaded!

WunderBlog® & News

Nearby

Air Quality

  Air Quality AQ Index Pollutant
Not available.

Snow Depth

Station Depth Elevation

Earthquake Activity

City Distance Mag. Time & Date
Minimum magnitude displayed is 2.5.

Coastal Water Temperatures

Place Temperature

Stations

Nearby Weather Stations

Station Location Temp. Windchill Dew Point Humidity Wind Precip. Elev Updated Type
                   

Watches & Warnings

There are currently no watches in effect.